createdAt,value
2022-08-22T00:00:14.973Z,1.90
2022-08-22T00:02:58.482Z,3.08
2022-08-22T00:03:02.385Z,3.80
2022-08-22T00:03:26.451Z,2.00
2022-08-22T00:06:33.539Z,2.10
2022-08-22T00:09:30.366Z,1.90
2022-08-22T00:12:10.305Z,2.03
2022-08-22T00:14:47.066Z,2.30
2022-08-22T00:17:15.320Z,2.20
2022-08-22T00:19:51.510Z,1.90
2022-08-22T00:22:36.342Z,2.33
2022-08-22T00:25:26.314Z,2.05
2022-08-22T00:28:05.370Z,1.92
2022-08-22T00:30:48.272Z,2.17
2022-08-22T00:34:17.991Z,1.80
2022-08-22T00:36:57.038Z,1.80
2022-08-22T00:40:03.355Z,1.73
2022-08-22T00:42:57.795Z,1.58
2022-08-22T00:46:03.559Z,2.10
2022-08-22T00:48:37.083Z,2.70
2022-08-22T00:51:42.300Z,2.55
2022-08-22T00:54:34.936Z,2.67
2022-08-22T00:57:10.538Z,3.00
2022-08-22T00:59:53.880Z,2.50
2022-08-22T01:02:34.054Z,2.55
2022-08-22T01:05:37.333Z,3.00
2022-08-22T01:08:28.576Z,2.75
2022-08-22T01:11:22.032Z,2.60
2022-08-22T01:14:00.886Z,2.67
2022-08-22T01:16:37.711Z,2.57
2022-08-22T01:19:29.909Z,2.58
2022-08-22T01:22:19.387Z,2.40
2022-08-22T01:25:26.255Z,2.25
2022-08-22T01:28:32.420Z,2.10
2022-08-22T01:31:32.232Z,2.17
2022-08-22T01:34:27.974Z,1.90
2022-08-22T01:36:56.200Z,1.90
2022-08-22T01:39:45.391Z,1.73
2022-08-22T01:42:25.497Z,1.92
2022-08-22T01:45:15.030Z,1.67
2022-08-22T01:48:00.431Z,1.83
2022-08-22T01:50:32.130Z,2.00
2022-08-22T01:53:40.018Z,2.10
2022-08-22T01:56:22.211Z,2.10
2022-08-22T01:59:02.957Z,1.88
2022-08-22T02:02:02.655Z,1.77
2022-08-22T02:05:03.451Z,1.98
2022-08-22T02:08:23.464Z,1.85
2022-08-22T02:11:06.608Z,1.90
2022-08-22T02:13:59.184Z,1.70
2022-08-22T02:16:48.754Z,1.80
2022-08-22T02:19:16.738Z,1.75
2022-08-22T02:21:52.117Z,2.08
2022-08-22T02:24:44.108Z,1.80
2022-08-22T02:27:39.878Z,1.92
2022-08-22T02:30:16.080Z,2.00
2022-08-22T02:33:07.967Z,1.70
2022-08-22T02:35:40.395Z,2.00
2022-08-22T02:38:30.424Z,2.03
2022-08-22T02:41:36.986Z,1.65
2022-08-22T02:44:30.957Z,1.83
2022-08-22T02:47:08.639Z,2.00
2022-08-22T02:49:44.931Z,1.70
2022-08-22T02:52:25.929Z,1.50
2022-08-22T02:55:21.816Z,1.80
2022-08-22T02:58:01.551Z,1.80
2022-08-22T03:00:42.952Z,2.00
2022-08-22T03:03:25.254Z,1.90
2022-08-22T03:06:27.421Z,1.70
2022-08-22T03:09:21.311Z,1.98
2022-08-22T03:12:20.157Z,2.22
2022-08-22T03:14:57.333Z,1.80
2022-08-22T03:17:40.780Z,1.80
2022-08-22T03:20:16.064Z,1.75
2022-08-22T03:22:54.685Z,1.80
2022-08-22T03:26:00.915Z,1.90
2022-08-22T03:28:37.819Z,1.80
2022-08-22T03:31:22.520Z,2.00
2022-08-22T03:34:25.356Z,1.92
2022-08-22T03:37:21.106Z,1.90
2022-08-22T03:39:52.097Z,1.83
2022-08-22T03:42:49.018Z,2.00
2022-08-22T03:45:29.195Z,1.80
2022-08-22T03:48:28.184Z,1.70
2022-08-22T03:51:24.356Z,1.92
2022-08-22T03:53:52.391Z,1.90
2022-08-22T03:56:26.385Z,1.88
2022-08-22T03:58:57.655Z,2.00
2022-08-22T04:01:43.693Z,1.70
2022-08-22T04:04:12.180Z,1.70
2022-08-22T04:07:00.055Z,1.95
2022-08-22T04:09:57.148Z,1.88
2022-08-22T04:12:50.204Z,1.73
2022-08-22T04:15:39.720Z,1.77
2022-08-22T04:18:20.129Z,1.80
2022-08-22T04:20:51.311Z,2.00
2022-08-22T04:23:47.380Z,1.80
2022-08-22T04:26:39.025Z,2.00
2022-08-22T04:29:16.904Z,1.95
2022-08-22T04:31:54.145Z,1.90
2022-08-22T04:34:34.227Z,1.90
2022-08-22T04:37:31.360Z,2.25
2022-08-22T04:40:20.451Z,1.95
2022-08-22T04:43:03.669Z,1.95
2022-08-22T04:45:49.624Z,2.08
2022-08-22T04:48:32.994Z,2.50
2022-08-22T04:51:16.240Z,2.30
2022-08-22T04:54:07.276Z,2.00
2022-08-22T04:57:15.109Z,2.13
2022-08-22T04:59:44.484Z,1.80
2022-08-22T05:02:21.476Z,1.88
2022-08-22T05:05:02.250Z,1.98
2022-08-22T05:07:56.139Z,2.20
2022-08-22T05:10:37.990Z,2.40
2022-08-22T05:13:15.740Z,1.80
2022-08-22T05:15:50.751Z,1.80
2022-08-22T05:18:30.128Z,2.10
2022-08-22T05:21:02.562Z,2.03
2022-08-22T05:23:48.778Z,1.97
2022-08-22T05:26:22.207Z,2.50
2022-08-22T05:28:57.280Z,2.20
2022-08-22T05:31:42.377Z,2.08
2022-08-22T05:34:20.274Z,2.20
2022-08-22T05:37:13.618Z,2.20
2022-08-22T05:39:47.725Z,2.00
2022-08-22T05:42:43.715Z,2.10
2022-08-22T05:45:17.559Z,1.90
2022-08-22T05:47:50.094Z,2.20
2022-08-22T05:50:29.336Z,2.28
2022-08-22T05:53:31.239Z,2.28
2022-08-22T05:56:08.236Z,2.25
2022-08-22T05:58:45.918Z,2.47
2022-08-22T06:01:17.189Z,2.50
2022-08-22T06:04:07.449Z,2.85
2022-08-22T06:07:02.507Z,2.60
2022-08-22T06:09:47.986Z,2.38
2022-08-22T06:12:22.495Z,2.50
2022-08-22T06:15:29.440Z,2.67
2022-08-22T06:18:12.667Z,2.38
2022-08-22T06:20:46.166Z,2.42
2022-08-22T06:23:30.065Z,2.40
2022-08-22T06:26:02.105Z,2.03
2022-08-22T06:28:55.308Z,2.22
2022-08-22T06:31:33.949Z,2.20
2022-08-22T06:34:06.032Z,2.10
2022-08-22T06:36:38.748Z,1.95
2022-08-22T06:39:21.201Z,2.33
2022-08-22T06:42:03.405Z,2.20
2022-08-22T06:44:36.836Z,2.40
2022-08-22T06:47:09.099Z,2.70
2022-08-22T06:49:40.726Z,2.22
2022-08-22T06:52:25.206Z,1.92
2022-08-22T06:55:03.158Z,1.80
2022-08-22T06:57:36.335Z,2.45
2022-08-22T07:00:12.740Z,2.38
2022-08-22T07:03:08.606Z,2.30
2022-08-22T07:05:40.286Z,2.10
2022-08-22T07:08:14.849Z,2.00
2022-08-22T07:10:57.210Z,2.05
2022-08-22T07:13:28.322Z,2.35
2022-08-22T07:16:02.340Z,2.08
2022-08-22T07:18:32.502Z,1.80
2022-08-22T07:21:04.872Z,1.97
2022-08-22T07:23:41.206Z,2.30
2022-08-22T07:26:18.391Z,1.90
2022-08-22T07:28:58.397Z,1.90
2022-08-22T07:31:36.289Z,1.88
2022-08-22T07:34:33.506Z,1.80
2022-08-22T07:37:37.324Z,1.97
2022-08-22T07:40:14.413Z,1.50
2022-08-22T07:43:10.915Z,1.92
2022-08-22T07:45:50.691Z,1.83
2022-08-22T07:49:08.653Z,2.13
2022-08-22T07:51:45.636Z,1.80
2022-08-22T07:54:45.778Z,2.27
2022-08-22T07:57:30.863Z,2.30
2022-08-22T08:00:01.250Z,2.10
2022-08-22T08:02:52.616Z,2.40
2022-08-22T08:05:24.531Z,2.10
2022-08-22T08:07:56.375Z,1.95
2022-08-22T08:10:32.177Z,1.80
2022-08-22T08:13:14.705Z,2.07
2022-08-22T08:15:46.355Z,1.90
2022-08-22T08:18:22.348Z,1.88
2022-08-22T08:20:54.969Z,1.70
2022-08-22T08:23:25.534Z,1.50
2022-08-22T08:26:07.700Z,1.73
2022-08-22T08:28:45.265Z,1.80
2022-08-22T08:31:28.292Z,1.73
2022-08-22T08:34:06.186Z,1.58
2022-08-22T08:36:44.931Z,1.58
2022-08-22T08:39:37.709Z,1.80
2022-08-22T08:43:10.922Z,1.70
2022-08-22T08:45:41.962Z,1.70
2022-08-22T08:48:26.998Z,1.50
2022-08-22T08:51:16.544Z,1.67
2022-08-22T08:53:53.549Z,1.60
2022-08-22T08:56:27.004Z,1.67
2022-08-22T08:59:44.321Z,1.77
2022-08-22T09:02:42.489Z,1.67
2022-08-22T09:05:32.994Z,1.67
2022-08-22T09:08:32.840Z,1.38
2022-08-22T09:11:28.289Z,1.60
2022-08-22T09:13:59.717Z,1.60
2022-08-22T09:16:51.973Z,1.60
2022-08-22T09:19:23.695Z,1.70
2022-08-22T09:22:16.258Z,1.60
2022-08-22T09:25:07.460Z,1.50
2022-08-22T09:27:48.977Z,1.50
2022-08-22T09:30:27.565Z,1.60
2022-08-22T09:33:12.447Z,1.40
2022-08-22T09:35:54.879Z,1.70
2022-08-22T09:38:35.822Z,1.60
2022-08-22T09:41:34.828Z,1.40
2022-08-22T09:44:34.297Z,1.50
2022-08-22T09:47:24.592Z,1.40
2022-08-22T09:50:17.106Z,1.60
2022-08-22T09:53:14.395Z,1.77
2022-08-22T09:55:59.035Z,1.30
2022-08-22T09:58:43.098Z,1.52
2022-08-22T10:01:33.570Z,1.40
2022-08-22T10:04:20.394Z,2.10
2022-08-22T10:06:52.121Z,1.83
2022-08-22T10:09:32.034Z,1.90
2022-08-22T10:12:12.425Z,2.05
2022-08-22T10:15:17.430Z,2.15
2022-08-22T10:18:15.845Z,2.00
2022-08-22T10:21:02.930Z,2.03
2022-08-22T10:23:46.702Z,2.13
2022-08-22T10:26:39.683Z,1.85
2022-08-22T10:29:36.227Z,2.10
2022-08-22T10:32:42.916Z,1.90
2022-08-22T10:38:00.084Z,1.80
2022-08-22T10:40:54.905Z,1.90
2022-08-22T10:44:01.538Z,2.15
2022-08-22T10:46:57.632Z,2.00
2022-08-22T10:49:57.366Z,1.83
2022-08-22T10:52:37.972Z,1.80
2022-08-22T10:55:25.010Z,1.80
2022-08-22T10:58:13.126Z,1.65
2022-08-22T11:00:54.773Z,1.75
2022-08-22T11:03:44.003Z,1.80
2022-08-22T11:06:41.752Z,2.47
2022-08-22T11:09:39.731Z,2.10
2022-08-22T11:12:19.700Z,1.80
2022-08-22T11:15:05.589Z,2.33
2022-08-22T11:17:58.845Z,1.80
2022-08-22T11:21:02.952Z,1.93
2022-08-22T11:23:49.292Z,1.67
2022-08-22T11:26:47.510Z,1.60
2022-08-22T11:29:39.173Z,1.60
2022-08-22T11:32:12.475Z,1.60
2022-08-22T11:35:10.203Z,1.60
2022-08-22T11:38:00.984Z,1.50
2022-08-22T11:40:40.864Z,1.40
2022-08-22T11:43:18.079Z,1.60
2022-08-22T11:45:57.288Z,1.80
2022-08-22T11:49:01.234Z,1.80
2022-08-22T11:52:10.758Z,1.67
2022-08-22T11:54:57.417Z,1.65
2022-08-22T11:57:25.407Z,1.92
2022-08-22T12:00:20.802Z,2.20
2022-08-22T12:03:05.314Z,2.00
2022-08-22T12:05:40.199Z,1.90
2022-08-22T12:08:14.476Z,1.77
2022-08-22T12:11:13.887Z,1.60
2022-08-22T12:14:06.004Z,1.88
2022-08-22T12:16:40.701Z,1.80
2022-08-22T12:19:32.761Z,1.70
2022-08-22T12:22:28.938Z,1.80
2022-08-22T12:25:18.046Z,3.50
2022-08-22T12:28:15.725Z,4.75
2022-08-22T12:30:57.942Z,6.00
2022-08-22T12:33:25.983Z,5.90
2022-08-22T12:36:18.314Z,4.55
2022-08-22T12:45:17.229Z,2.00
2022-08-22T12:48:12.527Z,1.73
2022-08-22T12:51:23.077Z,2.10
2022-08-22T12:54:10.910Z,3.25
2022-08-22T12:56:59.487Z,4.20
2022-08-22T12:59:27.965Z,4.40
2022-08-22T13:02:00.234Z,4.68
2022-08-22T13:04:34.099Z,4.85
2022-08-22T13:07:51.806Z,5.00
2022-08-22T13:10:29.101Z,5.10
2022-08-22T13:12:59.051Z,5.83
2022-08-22T13:15:36.965Z,5.82
2022-08-22T13:18:30.272Z,4.63
2022-08-22T13:21:04.052Z,4.45
2022-08-22T13:23:51.788Z,4.50
2022-08-22T13:26:33.777Z,4.00
2022-08-22T13:29:26.772Z,3.35
2022-08-22T13:32:00.668Z,3.40
2022-08-22T13:34:43.475Z,3.58
2022-08-22T13:37:20.203Z,2.92
2022-08-22T13:39:59.122Z,3.00
2022-08-22T13:42:31.313Z,3.50
2022-08-22T13:45:05.859Z,3.00
2022-08-22T13:47:39.563Z,3.10
2022-08-22T13:50:19.718Z,2.78
2022-08-22T13:52:56.955Z,2.50
2022-08-22T13:55:43.691Z,2.97
2022-08-22T13:58:35.458Z,2.80
2022-08-22T14:01:38.251Z,3.05
2022-08-22T14:04:31.932Z,3.15
2022-08-22T14:07:04.779Z,3.05
2022-08-22T14:10:06.721Z,2.90
2022-08-22T14:12:50.555Z,2.90
2022-08-22T14:15:25.442Z,3.45
2022-08-22T14:18:14.368Z,3.30
2022-08-22T14:20:44.394Z,3.20
2022-08-22T14:23:29.746Z,3.30
2022-08-22T14:26:02.899Z,3.70
2022-08-22T14:28:36.084Z,4.65
2022-08-22T14:31:13.668Z,4.45
2022-08-22T14:33:53.310Z,3.97
2022-08-22T14:36:27.076Z,4.07
2022-08-22T14:39:10.088Z,3.75
2022-08-22T14:41:58.645Z,3.38
2022-08-22T14:44:44.426Z,3.30
2022-08-22T14:47:55.333Z,3.58
2022-08-22T14:50:39.531Z,3.80
2022-08-22T14:53:30.897Z,3.70
2022-08-22T14:56:18.784Z,3.70
2022-08-22T14:59:00.290Z,3.88
2022-08-22T15:01:32.878Z,3.83
2022-08-22T15:04:06.446Z,4.35
2022-08-22T15:06:48.214Z,5.43
2022-08-22T15:09:36.930Z,5.38
2022-08-22T15:12:47.188Z,5.75
2022-08-22T15:15:49.723Z,6.00
2022-08-22T15:18:35.940Z,6.28
2022-08-22T15:21:21.069Z,5.63
2022-08-22T15:24:02.788Z,5.78
2022-08-22T15:26:40.128Z,5.18
2022-08-22T15:29:21.555Z,4.70
2022-08-22T15:31:55.876Z,4.68
2022-08-22T15:34:42.499Z,4.87
2022-08-22T15:37:19.421Z,4.70
2022-08-22T15:40:34.828Z,4.97
2022-08-22T15:43:34.913Z,4.70
2022-08-22T15:46:18.021Z,3.95
2022-08-22T15:49:21.651Z,4.00
2022-08-22T15:51:59.945Z,3.03
2022-08-22T15:54:51.848Z,3.38
2022-08-22T15:57:51.409Z,3.60
2022-08-22T16:00:45.087Z,3.47
2022-08-22T16:03:30.380Z,4.10
2022-08-22T16:06:08.403Z,4.27
2022-08-22T16:08:52.773Z,4.27
2022-08-22T16:11:33.422Z,4.10
2022-08-22T16:14:47.945Z,4.00
2022-08-22T16:17:30.684Z,3.10
2022-08-22T16:20:15.887Z,2.70
2022-08-22T16:22:59.579Z,2.73
2022-08-22T16:25:46.613Z,3.00
2022-08-22T16:28:57.473Z,3.40
2022-08-22T16:31:35.663Z,3.45
2022-08-22T16:34:19.178Z,3.38
2022-08-22T16:37:23.916Z,2.87
2022-08-22T16:40:19.345Z,3.20
2022-08-22T16:42:53.179Z,3.70
2022-08-22T16:45:40.084Z,3.40
2022-08-22T16:48:26.834Z,3.33
2022-08-22T16:51:19.006Z,3.53
2022-08-22T16:54:04.428Z,4.20
2022-08-22T16:56:45.898Z,4.00
2022-08-22T16:59:24.165Z,4.13
2022-08-22T17:02:11.621Z,4.05
2022-08-22T17:05:16.318Z,3.78
2022-08-22T17:08:14.452Z,3.80
2022-08-22T17:10:49.640Z,3.50
2022-08-22T17:13:26.330Z,4.82
2022-08-22T17:16:22.435Z,4.43
2022-08-22T17:19:22.700Z,5.53
2022-08-22T17:22:28.840Z,5.80
2022-08-22T17:25:12.590Z,5.27
2022-08-22T17:27:47.666Z,5.40
2022-08-22T17:30:24.405Z,5.90
2022-08-22T17:33:26.652Z,4.95
2022-08-22T17:36:26.386Z,4.68
2022-08-22T17:39:21.233Z,4.40
2022-08-22T17:42:20.866Z,4.00
2022-08-22T17:45:17.269Z,3.63
2022-08-22T17:47:55.517Z,3.33
2022-08-22T17:50:28.741Z,3.55
2022-08-22T17:53:38.551Z,3.53
2022-08-22T17:56:22.326Z,4.83
2022-08-22T17:59:05.037Z,4.60
2022-08-22T18:01:36.462Z,4.72
2022-08-22T18:04:08.317Z,5.22
2022-08-22T18:06:44.871Z,4.75
2022-08-22T18:09:30.338Z,5.07
2022-08-22T18:12:24.000Z,5.18
2022-08-22T18:15:00.371Z,5.03
2022-08-22T18:17:36.861Z,4.70
2022-08-22T18:20:17.927Z,4.70
2022-08-22T18:22:57.386Z,4.70
2022-08-22T18:25:43.760Z,5.00
2022-08-22T18:28:36.567Z,4.85
2022-08-22T18:31:09.809Z,4.47
2022-08-22T18:33:56.234Z,4.10
2022-08-22T18:36:35.495Z,4.00
2022-08-22T18:39:26.113Z,3.90
2022-08-22T18:42:10.666Z,4.10
2022-08-22T18:44:40.522Z,3.55
2022-08-22T18:47:23.568Z,3.70
2022-08-22T18:49:55.110Z,3.85
2022-08-22T18:52:29.610Z,3.83
2022-08-22T18:55:30.386Z,3.60
2022-08-22T18:58:10.014Z,4.00
2022-08-22T19:00:50.693Z,4.35
2022-08-22T19:03:25.725Z,4.20
2022-08-22T19:06:33.856Z,4.10
2022-08-22T19:09:17.901Z,4.10
2022-08-22T19:12:03.929Z,3.90
2022-08-22T19:14:54.119Z,4.22
2022-08-22T19:17:41.002Z,4.32
2022-08-22T19:20:46.130Z,4.63
2022-08-22T19:23:41.134Z,4.60
2022-08-22T19:26:36.852Z,5.03
2022-08-22T19:29:18.972Z,4.72
2022-08-22T19:31:56.824Z,4.60
2022-08-22T19:34:30.618Z,5.00
2022-08-22T19:37:30.759Z,4.80
2022-08-22T19:40:07.760Z,5.27
2022-08-22T19:42:42.416Z,5.00
2022-08-22T19:45:29.606Z,4.72
2022-08-22T19:48:14.372Z,4.85
2022-08-22T19:50:43.724Z,6.07
2022-08-22T19:53:27.422Z,6.97
2022-08-22T19:56:28.496Z,6.27
2022-08-22T19:59:09.445Z,7.85
2022-08-22T20:01:49.676Z,8.32
2022-08-22T20:04:59.558Z,7.18
2022-08-22T20:07:58.923Z,7.10
2022-08-22T20:10:45.400Z,6.90
2022-08-22T20:13:30.272Z,6.88
2022-08-22T20:16:19.407Z,7.03
2022-08-22T20:19:06.580Z,6.63
2022-08-22T20:21:41.708Z,6.93
2022-08-22T20:24:24.132Z,7.27
2022-08-22T20:27:13.507Z,6.70
2022-08-22T20:30:14.072Z,7.20
2022-08-22T20:32:51.638Z,7.30
2022-08-22T20:35:26.912Z,7.75
2022-08-22T20:38:06.697Z,7.45
2022-08-22T20:40:56.526Z,6.10
2022-08-22T20:43:37.913Z,5.82
2022-08-22T20:46:27.894Z,4.90
2022-08-22T20:48:57.592Z,5.20
2022-08-22T20:51:28.651Z,5.85
2022-08-22T20:54:16.151Z,5.10
2022-08-22T20:56:57.707Z,4.73
2022-08-22T20:59:31.518Z,4.60
2022-08-22T21:02:22.360Z,4.18
2022-08-22T21:04:53.257Z,4.55
2022-08-22T21:07:35.291Z,4.15
2022-08-22T21:10:42.984Z,3.90
2022-08-22T21:13:21.568Z,3.53
2022-08-22T21:15:59.952Z,3.65
2022-08-22T21:18:37.254Z,3.60
2022-08-22T21:21:20.880Z,3.63
2022-08-22T21:24:00.706Z,3.37
2022-08-22T21:26:31.436Z,3.47
2022-08-22T21:29:09.836Z,3.20
2022-08-22T21:31:45.186Z,2.95
2022-08-22T21:34:21.744Z,3.00
2022-08-22T21:36:52.808Z,2.85
2022-08-22T21:39:26.920Z,2.90
2022-08-22T21:42:26.854Z,2.80
2022-08-22T21:45:01.748Z,2.80
2022-08-22T21:47:30.540Z,2.70
2022-08-22T21:50:09.465Z,2.53
2022-08-22T21:52:40.581Z,2.67
2022-08-22T21:55:24.440Z,2.70
2022-08-22T21:58:07.342Z,2.60
2022-08-22T22:00:49.438Z,2.80
2022-08-22T22:03:20.932Z,3.00
2022-08-22T22:05:51.077Z,2.50
2022-08-22T22:08:22.030Z,2.78
2022-08-22T22:10:52.311Z,2.75
2022-08-22T22:13:21.283Z,2.60
2022-08-22T22:15:53.741Z,2.80
2022-08-22T22:18:25.435Z,2.90
2022-08-22T22:20:54.827Z,2.90
2022-08-22T22:23:24.728Z,2.90
2022-08-22T22:25:55.062Z,3.05
2022-08-22T22:28:26.440Z,3.00
2022-08-22T22:30:57.796Z,3.00
2022-08-22T22:33:31.681Z,3.05
2022-08-22T22:36:04.858Z,2.88
2022-08-22T22:38:33.157Z,3.15
2022-08-22T22:41:01.055Z,3.17
2022-08-22T22:43:29.479Z,3.00
2022-08-22T22:46:01.154Z,2.87
2022-08-22T22:48:29.606Z,3.08
2022-08-22T22:50:57.729Z,2.70
2022-08-22T22:53:33.866Z,2.83
2022-08-22T22:56:09.574Z,2.92
2022-08-22T22:58:38.621Z,2.80
2022-08-22T23:01:14.375Z,2.63
2022-08-22T23:03:43.694Z,2.90
2022-08-22T23:06:18.031Z,2.90
2022-08-22T23:08:46.960Z,3.00
2022-08-22T23:11:20.989Z,2.73
2022-08-22T23:13:49.785Z,3.00
2022-08-22T23:16:24.291Z,3.40
2022-08-22T23:18:52.599Z,2.80
2022-08-22T23:21:27.465Z,2.47
2022-08-22T23:24:01.131Z,2.40
2022-08-22T23:26:29.512Z,2.27
2022-08-22T23:28:58.385Z,1.90
2022-08-22T23:31:51.379Z,1.92
2022-08-22T23:34:31.620Z,2.08
2022-08-22T23:37:02.361Z,2.00
2022-08-22T23:39:35.913Z,1.80
2022-08-22T23:42:04.359Z,2.10
2022-08-22T23:44:35.008Z,1.70
2022-08-22T23:47:05.736Z,1.92
2022-08-22T23:49:34.576Z,1.70
2022-08-22T23:52:03.049Z,1.88
2022-08-22T23:54:31.500Z,1.80
2022-08-22T23:57:02.364Z,1.83
2022-08-22T23:59:34.115Z,1.92
